CMA-CGM Fort Saint Pierre — FQFM — position and weather

sailwx.info

Track history (hours):
 
Tides and Currents Weather Stations Pressure Air Temp Water Temp Dewpoint Dewpoint Depression Visibility Wind Speed Wind Dir Waves Ship Positions

CMA-CGM Fort Saint Pierre

Last reported at 2017-May-27 07:58 UTC. Time now 2017-May-27 08:00 UTC.
Position N 49°27' E 000°10'.

Length 197 m; beam 30 m.

Type: Ship (hazmat cat D). MMSI: 226328000.

Date/timePositionNaut miles runAvg speedWind from/ knotsBaromVisibWave heightAir tempDewpointWater temp
2017-May-27 07:58N 49°27' E 000°10'0 0.0
2017-May-27 07:28N 49°27' E 000°10'0 0.7
2017-May-27 07:00N 49°27' E 000°09'3 6.0
2017-May-27 06:30N 49°29' E 000°05'713.3
2017-May-27 06:00N 49°31' W 000°05'4 8.1
2017-May-27 05:30N 49°33' W 000°10'5 9.2
2017-May-27 05:00N 49°38' W 000°11'510.3
2017-May-27 04:30N 49°43' W 000°11'5 9.7
2017-May-27 04:00N 49°48' W 000°12'612.1
2017-May-27 03:30N 49°54' W 000°12'612.1
2017-May-27 03:00N 49°60' W 000°13'510.7
2017-May-27 02:30N 50°05' W 000°13'510.3
2017-May-27 02:00N 50°10' W 000°14'510.1
2017-May-27 01:30N 50°15' W 000°14'510.5
2017-May-27 01:00N 50°20' W 000°12'5 9.3
2017-May-27 00:30N 50°25' W 000°11'4 8.4
2017-May-27 00:00N 50°27' W 000°05'4 8.2
2017-May-26 23:30N 50°28' E 000°01'3 6.9
2017-May-26 23:00N 50°29' E 000°06'3 6.2
2017-May-26 22:30N 50°30' E 000°11'3 5.7
2017-May-26 22:00N 50°30' E 000°15'3 5.1
2017-May-26 21:30N 50°32' E 000°19'3 5.1
2017-May-26 21:00N 50°32' E 000°23'3 5.6
2017-May-26 20:30N 50°33' E 000°27'3 6.2
2017-May-26 20:00N 50°33' E 000°32'3 6.5
2017-May-26 19:30N 50°34' E 000°36'510.5
2017-May-26 19:00N 50°38' E 000°43'612.7
2017-May-26 18:30N 50°42' E 000°51'713.4
2017-May-26 18:00N 50°46' E 000°59'713.5
2017-May-26 17:30N 50°50' E 001°08'713.3
2017-May-26 17:00N 50°54' E 001°16'612.9
2017-May-26 16:30N 50°58' E 001°24'611.9
2017-May-26 16:00N 51°02' E 001°30'611.9
2017-May-26 15:30N 51°07' E 001°37'612.3
2017-May-26 15:00N 51°11' E 001°43'1211.6
2017-May-26 14:00N 51°21' E 001°55'611.1
2017-May-26 13:31N 51°25' E 002°00'612.7
2017-May-26 13:00N 51°23' E 002°10'612.5
2017-May-26 12:30N 51°21' E 002°20'612.7
2017-May-26 12:01N 51°23' E 002°29'612.5
2017-May-26 11:30N 51°23' E 002°39'5 9.9
2017-May-26 11:01N 51°25' E 002°47'714.6
2017-May-26 10:31N 51°25' E 002°59'815.0
2017-May-26 10:00N 51°24' E 003°11'714.9
2017-May-26 09:31N 51°25' E 003°23'714.3
2017-May-26 09:00N 51°26' E 003°34'5 9.4
2017-May-26 08:31N 51°26' E 003°42'713.6
2017-May-26 08:00N 51°21' E 003°49'714.7
2017-May-26 07:30N 51°25' E 003°58'612.0
2017-May-26 07:00N 51°22' E 004°06'611.5
2017-May-26 06:30N 51°21' E 004°15'3 6.3
2017-May-26 05:58N 51°18' E 004°16'0 0.0
2017-May-26 05:28N 51°18' E 004°16'0 0.0
2017-May-26 04:58N 51°18' E 004°16'0 0.0
2017-May-26 04:28N 51°18' E 004°16'0 0.0
2017-May-26 03:58N 51°18' E 004°16'0 0.0
2017-May-26 03:28N 51°18' E 004°16'0 0.0
2017-May-26 02:58N 51°18' E 004°16'0 0.0
2017-May-26 02:28N 51°18' E 004°16'0 0.0
2017-May-26 01:58N 51°18' E 004°16'0 0.0
2017-May-26 01:22N 51°18' E 004°16'0 0.0
2017-May-26 00:58N 51°18' E 004°16'0 0.0
2017-May-26 00:28N 51°18' E 004°16'0 0.1
2017-May-25 23:58N 51°18' E 004°16'0 0.0
2017-May-25 23:28N 51°18' E 004°16'0 0.0
2017-May-25 22:58N 51°18' E 004°16'0 0.0
2017-May-25 22:22N 51°18' E 004°16'0 0.0
2017-May-25 21:55N 51°18' E 004°16'0 0.0
2017-May-25 21:28N 51°18' E 004°16'0 0.0
2017-May-25 20:52N 51°18' E 004°16'0 0.0
2017-May-25 20:28N 51°18' E 004°16'0 0.0
2017-May-25 19:58N 51°18' E 004°16'0 0.0
2017-May-25 19:28N 51°18' E 004°16'0 0.0
2017-May-25 18:58N 51°18' E 004°16'0 0.0
2017-May-25 18:10N 51°18' E 004°16'0 0.0
2017-May-25 17:58N 51°18' E 004°16'0 0.0
2017-May-25 17:22N 51°18' E 004°16'0 0.0
2017-May-25 16:58N 51°18' E 004°16'0 0.0
2017-May-25 16:28N 51°18' E 004°16'0 0.0
2017-May-25 15:58N 51°18' E 004°16'0 0.0
2017-May-25 15:30N 51°18' E 004°16'1 2.8
2017-May-25 15:00N 51°19' E 004°16'9 8.8
2017-May-25 14:00N 51°22' E 004°03'4 8.0
2017-May-25 13:31N 51°24' E 003°58'713.3
2017-May-25 13:01N 51°21' E 003°48'612.9
2017-May-25 12:31N 51°26' E 003°41'611.5
2017-May-25 12:00N 51°25' E 003°32'612.8
2017-May-25 11:31N 51°24' E 003°22'714.9
2017-May-25 11:01N 51°24' E 003°10'714.5
2017-May-25 10:31N 51°25' E 002°59'815.3
2017-May-25 10:01N 51°32' E 003°06'815.5
2017-May-25 09:30N 51°39' E 003°11'713.1
2017-May-25 09:00N 51°45' E 003°14'4 8.0
2017-May-25 08:30N 51°48' E 003°18'3 5.6
2017-May-25 07:58N 51°48' E 003°23'0 0.0
2017-May-25 07:29N 51°48' E 003°23'0 0.0
2017-May-25 06:59N 51°48' E 003°23'0 0.0
2017-May-25 06:29N 51°48' E 003°23'0 0.0
2017-May-25 05:59N 51°48' E 003°23'0 0.0
2017-May-25 05:29N 51°48' E 003°23'0 0.1
2017-May-25 04:59N 51°48' E 003°23'0 0.2
2017-May-25 04:29N 51°48' E 003°23'0 0.1
2017-May-25 03:59N 51°48' E 003°23'0 0.0
2017-May-25 03:26N 51°48' E 003°23'0 0.0
2017-May-25 02:59N 51°48' E 003°23'0 0.0
2017-May-25 02:29N 51°48' E 003°23'0 0.0
2017-May-25 01:59N 51°48' E 003°23'0 0.0
2017-May-25 01:26N 51°48' E 003°23'0 0.0
2017-May-25 00:38N 51°48' E 003°23'0 0.0
2017-May-25 00:11N 51°48' E 003°23'0 0.0
2017-May-24 23:56N 51°48' E 003°23'0 0.0
2017-May-24 23:29N 51°48' E 003°23'0 0.1
2017-May-24 22:59N 51°48' E 003°23'0 0.2
2017-May-24 22:28N 51°48' E 003°23'0 0.1
2017-May-24 21:58N 51°48' E 003°23'0 0.0
2017-May-24 21:26N 51°48' E 003°23'0 0.0
2017-May-24 20:59N 51°48' E 003°23'0 0.0
2017-May-24 20:29N 51°48' E 003°23'0 0.0
2017-May-24 19:59N 51°48' E 003°23'0 0.0
2017-May-24 19:23N 51°48' E 003°23'0 0.0
2017-May-24 18:59N 51°48' E 003°23'0 0.0
2017-May-24 18:29N 51°48' E 003°23'0 0.0
2017-May-24 17:56N 51°48' E 003°23'0 0.0
2017-May-24 17:29N 51°48' E 003°23'0 0.0
2017-May-24 16:56N 51°48' E 003°23'0 0.2
2017-May-24 16:29N 51°48' E 003°23'0 0.2
2017-May-24 15:28N 51°48' E 003°23'0 0.0
2017-May-24 14:53N 51°48' E 003°23'1 1.6
2017-May-24 14:00N 51°50' E 003°24'4 8.4
2017-May-24 13:30N 51°52' E 003°19'8 7.1
2017-May-24 12:19N 52°01' E 003°20'2 7.6
2017-May-24 12:00N 52°03' E 003°21'4 8.1
2017-May-24 11:28N 52°07' E 003°22'3 7.0
2017-May-24 11:00N 52°11' E 003°23'3 6.3
2017-May-24 10:30N 52°14' E 003°23'3 6.8
2017-May-24 10:00N 52°17' E 003°24'4 7.1
2017-May-24 09:30N 52°21' E 003°25'4 7.3
2017-May-24 08:59N 52°24' E 003°26'4 7.6
2017-May-24 08:30N 52°28' E 003°28'4 7.8
2017-May-24 08:00N 52°32' E 003°29'4 8.4
2017-May-24 07:30N 52°36' E 003°30'5 9.2
2017-May-24 07:00N 52°40' E 003°34'5 9.1
2017-May-24 06:27N 52°43' E 003°40'4 8.9
2017-May-24 06:00N 52°47' E 003°44'6 9.0
2017-May-24 05:22N 52°51' E 003°50'3 9.4
2017-May-24 05:00N 52°54' E 003°54'5 9.2
2017-May-24 04:30N 52°57' E 003°59'5 9.2
2017-May-24 03:59N 53°00' E 004°05'5 9.4
2017-May-24 03:24N 53°04' E 004°12'4 9.3
2017-May-24 02:59N 53°06' E 004°16'6 9.2
2017-May-24 02:21N 53°10' E 004°23'7 8.5
2017-May-24 01:34N 53°16' E 004°28'0 8.1
2017-May-24 01:30N 53°17' E 004°28'7 8.7
2017-May-24 00:45N 53°23' E 004°32'2 9.2
2017-May-24 00:30N 53°25' E 004°33'5 9.2
2017-May-24 00:00N 53°29' E 004°38'510.1
2017-May-23 23:30N 53°30' E 004°46'710.3
2017-May-23 22:48N 53°33' E 004°58'410.3
2017-May-23 22:22N 53°34' E 005°05'113 9.5
2017-May-23 10:31N 54°01' E 008°10'2 9.8
2017-May-23 10:18N 54°00' E 008°14'516.3
2017-May-23 09:58N 53°59' E 008°23'817.4
2017-May-23 09:30N 53°58' E 008°36'713.8
2017-May-23 09:00N 53°52' E 008°43'4 8.2
2017-May-23 08:30N 53°50' E 008°50'612.1
2017-May-23 08:00N 53°51' E 008°60'611.6
2017-May-23 07:30N 53°53' E 009°09'5 9.5
2017-May-23 07:01N 53°52' E 009°17'714.8
2017-May-23 06:31N 53°46' E 009°24'714.9
2017-May-23 06:00N 53°40' E 009°31'713.4
2017-May-23 05:31N 53°35' E 009°38'612.7
2017-May-23 05:01N 53°33' E 009°49'3 6.8
2017-May-23 04:30N 53°32' E 009°55'0 0.0
2017-May-23 03:58N 53°32' E 009°55'0 0.0
2017-May-23 03:28N 53°32' E 009°55'0 0.0
2017-May-23 02:58N 53°32' E 009°55'0 0.0
2017-May-23 02:28N 53°32' E 009°55'0 0.0
2017-May-23 01:58N 53°32' E 009°55'0 0.0
2017-May-23 01:28N 53°32' E 009°55'0 0.0
2017-May-23 00:58N 53°32' E 009°55'0 0.0
2017-May-23 00:28N 53°32' E 009°55'0 0.0
2017-May-22 23:58N 53°32' E 009°55'0 0.0
2017-May-22 23:28N 53°32' E 009°55'0 0.0
2017-May-22 22:58N 53°32' E 009°55'0 0.0
2017-May-22 22:28N 53°32' E 009°55'0 0.0
2017-May-22 21:58N 53°32' E 009°55'0 0.0
2017-May-22 21:28N 53°32' E 009°55'0 0.0
2017-May-22 20:58N 53°32' E 009°55'0 0.0
2017-May-22 20:28N 53°32' E 009°55'0 0.0
2017-May-22 19:55N 53°32' E 009°55'0 0.0
2017-May-22 19:28N 53°32' E 009°55'0 0.0
2017-May-22 18:58N 53°32' E 009°55'0 0.0
2017-May-22 18:28N 53°32' E 009°55'0 0.0
2017-May-22 17:58N 53°32' E 009°55'0 0.0
2017-May-22 17:28N 53°32' E 009°55'0 0.0
2017-May-22 16:58N 53°32' E 009°55'0 0.0
2017-May-22 16:28N 53°32' E 009°55'0 0.0
2017-May-22 15:58N 53°32' E 009°55'0 0.0
2017-May-22 15:28N 53°32' E 009°55'0 0.0
2017-May-22 14:58N 53°32' E 009°55'0 0.0
2017-May-22 13:58N 53°32' E 009°55'0 0.0
2017-May-22 13:28N 53°32' E 009°55'0 0.0
2017-May-22 12:58N 53°32' E 009°55'0 0.0
2017-May-22 12:28N 53°32' E 009°55'0 0.0
2017-May-22 11:58N 53°32' E 009°55'0 0.0
2017-May-22 11:28N 53°32' E 009°55'0 0.0
2017-May-22 10:58N 53°32' E 009°55'0 0.0
2017-May-22 10:28N 53°32' E 009°55'0 0.0
2017-May-22 09:58N 53°32' E 009°55'0 0.0
2017-May-22 09:28N 53°32' E 009°55'0 0.0
2017-May-22 08:58N 53°32' E 009°55'0 0.0
2017-May-22 08:28N 53°32' E 009°55'0 0.0
2017-May-22 07:58N 53°32' E 009°55'0 0.0
2017-May-22 07:28N 53°32' E 009°55'0 0.0
2017-May-22 06:58N 53°32' E 009°55'0 0.0
2017-May-22 06:28N 53°32' E 009°55'0 0.0
2017-May-22 05:58N 53°32' E 009°55'0 0.0
2017-May-22 05:28N 53°32' E 009°55'0 0.0
2017-May-22 04:58N 53°32' E 009°55'0 0.0
2017-May-22 04:28N 53°32' E 009°55'0 0.0
2017-May-22 03:58N 53°32' E 009°55'0 0.2
2017-May-22 03:30N 53°32' E 009°54'2 4.0
2017-May-22 03:00N 53°33' E 009°51'4 7.5
2017-May-22 02:30N 53°34' E 009°45'612.3
2017-May-22 02:01N 53°36' E 009°35'611.0
2017-May-22 01:31N 53°41' E 009°30'713.9
2017-May-22 01:00N 53°46' E 009°24'714.4
2017-May-22 00:30N 53°52' E 009°16'611.4
2017-May-22 00:01N 53°53' E 009°07'510.0
2017-May-21 23:30N 53°51' E 008°59'612.9
2017-May-21 23:01N 53°50' E 008°48'5 9.6
2017-May-21 22:30N 53°53' E 008°42'612.1
2017-May-21 22:01N 53°58' E 008°35'816.0
2017-May-21 21:30N 53°59' E 008°21'612.4
2017-May-21 21:00N 53°60' E 008°11'5 9.3
2017-May-21 20:30N 53°59' E 008°03'5 9.3
2017-May-21 19:59N 53°60' E 007°55'3 6.5
2017-May-21 19:30N 54°00' E 007°49'0 0.4
2017-May-21 19:00N 54°00' E 007°49'1 1.3
2017-May-21 18:25N 53°60' E 007°48'3 5.4
2017-May-21 17:55N 53°58' E 007°45'4 6.7
2017-May-21 17:21N 53°56' E 007°39'76 7.9
2017-May-21 07:49N 53°36' E 005°36'7 6.4
2017-May-21 06:40N 53°33' E 005°24'4 9.5
2017-May-21 06:17N 53°32' E 005°18'3 9.6
2017-May-21 06:00N 53°31' E 005°14'6 9.8
2017-May-21 05:26N 53°29' E 005°05'510.0
2017-May-21 04:58N 53°28' E 004°58'610.2
2017-May-21 04:25N 53°26' E 004°49'11 9.5
2017-May-21 03:19N 53°18' E 004°37'310.4
2017-May-21 02:59N 53°15' E 004°35'510.5
2017-May-21 02:30N 53°10' E 004°32'510.9
2017-May-21 02:00N 53°05' E 004°27'510.9
2017-May-21 01:30N 53°01' E 004°22'510.8
2017-May-21 01:00N 52°56' E 004°18'611.1
2017-May-21 00:30N 52°51' E 004°15'611.6
2017-May-21 00:00N 52°46' E 004°09'611.2
2017-May-20 23:30N 52°42' E 004°03'611.1
2017-May-20 23:00N 52°38' E 003°56'510.9
2017-May-20 22:30N 52°34' E 003°50'510.9
2017-May-20 22:00N 52°30' E 003°43'511.0
2017-May-20 21:30N 52°26' E 003°37'611.1
2017-May-20 21:00N 52°23' E 003°31'811.1
2017-May-20 20:16N 52°16' E 003°21'311.0
2017-May-20 20:00N 52°14' E 003°18'1010.7
2017-May-20 19:07N 52°08' E 003°07'210.6
2017-May-20 18:56N 52°07' E 003°04'1911.3
2017-May-20 17:17N 51°57' E 002°39'16 9.8
2017-May-20 15:41N 51°53' E 002°14'2 9.0
2017-May-20 15:29N 51°53' E 002°11'4 9.1
2017-May-20 15:00N 51°52' E 002°04'5 9.0
2017-May-20 14:30N 51°50' E 001°58'1010.5
2017-May-20 13:31N 51°51' E 001°41'611.3
2017-May-20 13:00N 51°47' E 001°34'917.3
2017-May-20 12:30N 51°40' E 001°25'918.5
2017-May-20 12:00N 51°34' E 001°14'1019.0
2017-May-20 11:30N 51°30' E 001°01'917.6
2017-May-20 11:00N 51°29' E 000°47'917.4
2017-May-20 10:31N 51°30' E 000°33'2 3.7
2017-May-20 10:01N 51°30' E 000°30'0 0.0
2017-May-20 09:31N 51°30' E 000°30'0 0.0
2017-May-20 09:01N 51°30' E 000°30'0 0.0
2017-May-20 08:31N 51°30' E 000°30'0 0.0
2017-May-20 08:01N 51°30' E 000°30'0 0.0
2017-May-20 07:31N 51°30' E 000°30'0 0.0
2017-May-20 07:01N 51°30' E 000°30'0 0.0
2017-May-20 06:31N 51°30' E 000°30'0 0.0
2017-May-20 06:01N 51°30' E 000°30'0 0.0
2017-May-20 05:31N 51°30' E 000°30'0 0.0
2017-May-20 05:01N 51°30' E 000°30'0 0.0
2017-May-20 04:31N 51°30' E 000°30'0 0.0
2017-May-20 04:01N 51°30' E 000°30'0 0.0
2017-May-20 03:31N 51°30' E 000°30'0 0.0
2017-May-20 03:01N 51°30' E 000°30'0 0.0
2017-May-20 02:31N 51°30' E 000°30'0 0.0
2017-May-20 02:01N 51°30' E 000°30'0 0.0
2017-May-20 01:30N 51°30' E 000°30'0 0.0
2017-May-20 01:00N 51°30' E 000°30'0 0.0
2017-May-20 00:30N 51°30' E 000°30'1 2.3
2017-May-20 00:00N 51°30' E 000°32'4 8.4
2017-May-19 23:30N 51°30' E 000°38'5 9.9
2017-May-19 23:00N 51°29' E 000°46'510.9
2017-May-19 22:30N 51°29' E 000°55'510.5
2017-May-19 22:00N 51°31' E 001°03'611.2
2017-May-19 21:31N 51°34' E 001°11'714.0
2017-May-19 21:01N 51°37' E 001°20'714.1
2017-May-19 20:31N 51°42' E 001°28'714.0
2017-May-19 20:01N 51°48' E 001°35'510.4
2017-May-19 19:30N 51°52' E 001°41'3 6.6
2017-May-19 19:00N 51°51' E 001°46'5 9.6
2017-May-19 18:30N 51°50' E 001°54'510.0
2017-May-19 18:00N 51°52' E 002°01'36 5.6
2017-May-19 11:33N 52°01' E 002°57'1 7.2
2017-May-19 11:29N 52°01' E 002°58'3 7.1
2017-May-19 11:00N 52°02' E 003°04'3 6.9
2017-May-19 10:30N 52°02' E 003°09'3 6.6
2017-May-19 10:00N 52°02' E 003°15'4 6.8
2017-May-19 09:29N 52°02' E 003°21'5 9.4
2017-May-19 09:00N 52°03' E 003°28'3 6.4
2017-May-19 08:30N 52°03' E 003°33'4 7.5
2017-May-19 08:00N 52°03' E 003°39'612.0
2017-May-19 07:30N 52°04' E 003°49'4 9.0
2017-May-19 07:01N 52°04' E 003°56'4 7.4
2017-May-19 06:31N 52°01' E 003°59'612.0
2017-May-19 06:00N 51°58' E 004°08'612.1
2017-May-19 05:30N 51°55' E 004°15'5 9.0
2017-May-19 05:00N 51°54' E 004°23'2 4.5
2017-May-19 04:30N 51°54' E 004°26'0 0.2
2017-May-19 03:58N 51°54' E 004°26'0 0.0
2017-May-19 03:28N 51°54' E 004°26'0 0.0
2017-May-19 02:58N 51°54' E 004°26'0 0.0
2017-May-19 02:29N 51°54' E 004°26'0 0.0
2017-May-19 01:58N 51°54' E 004°26'0 0.0
2017-May-19 01:29N 51°54' E 004°26'0 0.0
2017-May-19 00:58N 51°54' E 004°26'0 0.0
2017-May-19 00:29N 51°54' E 004°26'0 0.0
2017-May-18 23:59N 51°54' E 004°26'0 0.0
2017-May-18 23:29N 51°54' E 004°26'0 0.0
2017-May-18 22:58N 51°54' E 004°26'0 0.0
2017-May-18 22:29N 51°54' E 004°26'0 0.0
2017-May-18 21:59N 51°54' E 004°26'0 0.0
2017-May-18 21:29N 51°54' E 004°26'0 0.0
2017-May-18 20:59N 51°54' E 004°26'0 0.0
2017-May-18 20:29N 51°54' E 004°26'0 0.0
2017-May-18 19:59N 51°54' E 004°26'0 0.0
2017-May-18 19:29N 51°54' E 004°26'0 0.0
2017-May-18 18:59N 51°54' E 004°26'0 0.0
2017-May-18 18:29N 51°54' E 004°26'0 0.0
2017-May-18 17:59N 51°54' E 004°26'0 0.0
2017-May-18 17:28N 51°54' E 004°26'0 0.0
2017-May-18 16:58N 51°54' E 004°26'0 0.0
2017-May-18 16:29N 51°54' E 004°26'0 0.0
2017-May-18 15:59N 51°54' E 004°26'0 0.0
2017-May-18 15:29N 51°54' E 004°26'0 0.0
2017-May-18 14:58N 51°54' E 004°26'0 0.0
2017-May-18 13:59N 51°54' E 004°26'0 0.0
2017-May-18 13:29N 51°54' E 004°26'0 0.0
2017-May-18 12:58N 51°54' E 004°26'0 0.0
2017-May-18 12:28N 51°54' E 004°26'0 0.0
2017-May-18 11:58N 51°54' E 004°26'0 0.0
2017-May-18 11:29N 51°54' E 004°26'0 0.1
2017-May-18 10:59N 51°54' E 004°26'0 0.0
2017-May-18 10:29N 51°54' E 004°26'0 0.0
2017-May-18 09:59N 51°54' E 004°26'0 0.0
2017-May-18 09:29N 51°54' E 004°26'0 0.0
2017-May-18 08:59N 51°54' E 004°26'0 0.0
2017-May-18 08:29N 51°54' E 004°26'0 0.0
2017-May-18 07:59N 51°54' E 004°26'0 0.0
2017-May-18 07:28N 51°54' E 004°26'0 0.0
2017-May-18 06:58N 51°54' E 004°26'0 0.0
2017-May-18 06:28N 51°54' E 004°26'0 0.0
2017-May-18 05:58N 51°54' E 004°26'0 0.0
2017-May-18 05:28N 51°54' E 004°26'0 0.0
2017-May-18 04:58N 51°54' E 004°26'0 0.5
2017-May-18 04:30N 51°54' E 004°26'2 4.1
2017-May-18 04:00N 51°54' E 004°23'4 7.2
2017-May-18 03:31N 51°54' E 004°17'4 8.0
2017-May-18 03:01N 51°56' E 004°12'510.5
2017-May-18 02:31N 51°59' E 004°05'714.3
2017-May-18 02:00N 51°60' E 003°53'611.3
2017-May-18 01:30N 51°59' E 003°44'5 9.1
2017-May-18 01:00N 51°57' E 003°37'4 9.1
2017-May-18 00:30N 51°56' E 003°30'5 9.9
2017-May-18 00:00N 51°55' E 003°22'40 9.7
2017-May-17 19:54N 51°37' E 002°25'810.4
2017-May-17 19:10N 51°31' E 002°17'414.1
2017-May-17 18:54N 51°28' E 002°12'514.2
2017-May-17 18:30N 51°24' E 002°07'714.1
2017-May-17 18:00N 51°19' E 001°58'714.3
2017-May-17 17:30N 51°14' E 001°51'714.6
2017-May-17 17:00N 51°08' E 001°43'815.5
2017-May-17 16:30N 51°02' E 001°35'816.2
2017-May-17 16:00N 50°56' E 001°27'714.7
2017-May-17 15:30N 50°49' E 001°23'815.5
2017-May-17 15:00N 50°41' E 001°20'3614.9
2017-May-17 12:33N 50°23' E 000°31'215.9
2017-May-17 12:26N 50°23' E 000°28'715.9
2017-May-17 12:00N 50°21' E 000°18'816.0
2017-May-17 11:30N 50°19' E 000°06'815.8
2017-May-17 11:00N 50°17' W 000°06'815.7
2017-May-17 10:30N 50°15' W 000°18'815.4
2017-May-17 10:00N 50°13' W 000°30'815.1
2017-May-17 09:30N 50°11' W 000°42'714.8
2017-May-17 09:00N 50°10' W 000°53'714.3
2017-May-17 08:30N 50°08' W 001°04'713.8
2017-May-17 07:58N 50°06' W 001°15'  
Track history (hours):
 
Tides and Currents Weather Stations Pressure Air Temp Water Temp Dewpoint Dewpoint Depression Visibility Wind Speed Wind Dir Waves Ship Positions

CMA-CGM Fort Saint Pierre

Last reported at 2017-May-27 07:58 UTC. Time now 2017-May-27 08:00 UTC.
Position N 49°27' E 000°10'.

Length 197 m; beam 30 m.

Type: Ship (hazmat cat D). MMSI: 226328000.

Date/timePositionNaut miles runAvg speedWind from/ knotsBaromVisibWave heightAir tempDewpointWater temp
2017-May-27 07:58N 49°27' E 000°10'0 0.0
2017-May-27 07:28N 49°27' E 000°10'0 0.7
2017-May-27 07:00N 49°27' E 000°09'3 6.0
2017-May-27 06:30N 49°29' E 000°05'713.3
2017-May-27 06:00N 49°31' W 000°05'4 8.1
2017-May-27 05:30N 49°33' W 000°10'5 9.2
2017-May-27 05:00N 49°38' W 000°11'510.3
2017-May-27 04:30N 49°43' W 000°11'5 9.7
2017-May-27 04:00N 49°48' W 000°12'612.1
2017-May-27 03:30N 49°54' W 000°12'612.1
2017-May-27 03:00N 49°60' W 000°13'510.7
2017-May-27 02:30N 50°05' W 000°13'510.3
2017-May-27 02:00N 50°10' W 000°14'510.1
2017-May-27 01:30N 50°15' W 000°14'510.5
2017-May-27 01:00N 50°20' W 000°12'5 9.3
2017-May-27 00:30N 50°25' W 000°11'4 8.4
2017-May-27 00:00N 50°27' W 000°05'4 8.2
2017-May-26 23:30N 50°28' E 000°01'3 6.9
2017-May-26 23:00N 50°29' E 000°06'3 6.2
2017-May-26 22:30N 50°30' E 000°11'3 5.7
2017-May-26 22:00N 50°30' E 000°15'3 5.1
2017-May-26 21:30N 50°32' E 000°19'3 5.1
2017-May-26 21:00N 50°32' E 000°23'3 5.6
2017-May-26 20:30N 50°33' E 000°27'3 6.2
2017-May-26 20:00N 50°33' E 000°32'3 6.5
2017-May-26 19:30N 50°34' E 000°36'510.5
2017-May-26 19:00N 50°38' E 000°43'612.7
2017-May-26 18:30N 50°42' E 000°51'713.4
2017-May-26 18:00N 50°46' E 000°59'713.5
2017-May-26 17:30N 50°50' E 001°08'713.3
2017-May-26 17:00N 50°54' E 001°16'612.9
2017-May-26 16:30N 50°58' E 001°24'611.9
2017-May-26 16:00N 51°02' E 001°30'611.9
2017-May-26 15:30N 51°07' E 001°37'612.3
2017-May-26 15:00N 51°11' E 001°43'1211.6
2017-May-26 14:00N 51°21' E 001°55'611.1
2017-May-26 13:31N 51°25' E 002°00'612.7
2017-May-26 13:00N 51°23' E 002°10'612.5
2017-May-26 12:30N 51°21' E 002°20'612.7
2017-May-26 12:01N 51°23' E 002°29'612.5
2017-May-26 11:30N 51°23' E 002°39'5 9.9
2017-May-26 11:01N 51°25' E 002°47'714.6
2017-May-26 10:31N 51°25' E 002°59'815.0
2017-May-26 10:00N 51°24' E 003°11'714.9
2017-May-26 09:31N 51°25' E 003°23'714.3
2017-May-26 09:00N 51°26' E 003°34'5 9.4
2017-May-26 08:31N 51°26' E 003°42'713.6
2017-May-26 08:00N 51°21' E 003°49'714.7
2017-May-26 07:30N 51°25' E 003°58'612.0
2017-May-26 07:00N 51°22' E 004°06'611.5
2017-May-26 06:30N 51°21' E 004°15'3 6.3
2017-May-26 05:58N 51°18' E 004°16'0 0.0
2017-May-26 05:28N 51°18' E 004°16'0 0.0
2017-May-26 04:58N 51°18' E 004°16'0 0.0
2017-May-26 04:28N 51°18' E 004°16'0 0.0
2017-May-26 03:58N 51°18' E 004°16'0 0.0
2017-May-26 03:28N 51°18' E 004°16'0 0.0
2017-May-26 02:58N 51°18' E 004°16'0 0.0
2017-May-26 02:28N 51°18' E 004°16'0 0.0
2017-May-26 01:58N 51°18' E 004°16'0 0.0
2017-May-26 01:22N 51°18' E 004°16'0 0.0
2017-May-26 00:58N 51°18' E 004°16'0 0.0
2017-May-26 00:28N 51°18' E 004°16'0 0.1
2017-May-25 23:58N 51°18' E 004°16'0 0.0
2017-May-25 23:28N 51°18' E 004°16'0 0.0
2017-May-25 22:58N 51°18' E 004°16'0 0.0
2017-May-25 22:22N 51°18' E 004°16'0 0.0
2017-May-25 21:55N 51°18' E 004°16'0 0.0
2017-May-25 21:28N 51°18' E 004°16'0 0.0
2017-May-25 20:52N 51°18' E 004°16'0 0.0
2017-May-25 20:28N 51°18' E 004°16'0 0.0
2017-May-25 19:58N 51°18' E 004°16'0 0.0
2017-May-25 19:28N 51°18' E 004°16'0 0.0
2017-May-25 18:58N 51°18' E 004°16'0 0.0
2017-May-25 18:10N 51°18' E 004°16'0 0.0
2017-May-25 17:58N 51°18' E 004°16'0 0.0
2017-May-25 17:22N 51°18' E 004°16'0 0.0
2017-May-25 16:58N 51°18' E 004°16'0 0.0
2017-May-25 16:28N 51°18' E 004°16'0 0.0
2017-May-25 15:58N 51°18' E 004°16'0 0.0
2017-May-25 15:30N 51°18' E 004°16'1 2.8
2017-May-25 15:00N 51°19' E 004°16'9 8.8
2017-May-25 14:00N 51°22' E 004°03'4 8.0
2017-May-25 13:31N 51°24' E 003°58'713.3
2017-May-25 13:01N 51°21' E 003°48'612.9
2017-May-25 12:31N 51°26' E 003°41'611.5
2017-May-25 12:00N 51°25' E 003°32'612.8
2017-May-25 11:31N 51°24' E 003°22'714.9
2017-May-25 11:01N 51°24' E 003°10'714.5
2017-May-25 10:31N 51°25' E 002°59'815.3
2017-May-25 10:01N 51°32' E 003°06'815.5
2017-May-25 09:30N 51°39' E 003°11'713.1
2017-May-25 09:00N 51°45' E 003°14'4 8.0
2017-May-25 08:30N 51°48' E 003°18'3 5.6
2017-May-25 07:58N 51°48' E 003°23'0 0.0
2017-May-25 07:29N 51°48' E 003°23'0 0.0
2017-May-25 06:59N 51°48' E 003°23'0 0.0
2017-May-25 06:29N 51°48' E 003°23'0 0.0
2017-May-25 05:59N 51°48' E 003°23'0 0.0
2017-May-25 05:29N 51°48' E 003°23'0 0.1
2017-May-25 04:59N 51°48' E 003°23'0 0.2
2017-May-25 04:29N 51°48' E 003°23'0 0.1
2017-May-25 03:59N 51°48' E 003°23'0 0.0
2017-May-25 03:26N 51°48' E 003°23'0 0.0
2017-May-25 02:59N 51°48' E 003°23'0 0.0
2017-May-25 02:29N 51°48' E 003°23'0 0.0
2017-May-25 01:59N 51°48' E 003°23'0 0.0
2017-May-25 01:26N 51°48' E 003°23'0 0.0
2017-May-25 00:38N 51°48' E 003°23'0 0.0
2017-May-25 00:11N 51°48' E 003°23'0 0.0
2017-May-24 23:56N 51°48' E 003°23'0 0.0
2017-May-24 23:29N 51°48' E 003°23'0 0.1
2017-May-24 22:59N 51°48' E 003°23'0 0.2
2017-May-24 22:28N 51°48' E 003°23'0 0.1
2017-May-24 21:58N 51°48' E 003°23'0 0.0
2017-May-24 21:26N 51°48' E 003°23'0 0.0
2017-May-24 20:59N 51°48' E 003°23'0 0.0
2017-May-24 20:29N 51°48' E 003°23'0 0.0
2017-May-24 19:59N 51°48' E 003°23'0 0.0
2017-May-24 19:23N 51°48' E 003°23'0 0.0
2017-May-24 18:59N 51°48' E 003°23'0 0.0
2017-May-24 18:29N 51°48' E 003°23'0 0.0
2017-May-24 17:56N 51°48' E 003°23'0 0.0
2017-May-24 17:29N 51°48' E 003°23'0 0.0
2017-May-24 16:56N 51°48' E 003°23'0 0.2
2017-May-24 16:29N 51°48' E 003°23'0 0.2
2017-May-24 15:28N 51°48' E 003°23'0 0.0
2017-May-24 14:53N 51°48' E 003°23'1 1.6
2017-May-24 14:00N 51°50' E 003°24'4 8.4
2017-May-24 13:30N 51°52' E 003°19'8 7.1
2017-May-24 12:19N 52°01' E 003°20'2 7.6
2017-May-24 12:00N 52°03' E 003°21'4 8.1
2017-May-24 11:28N 52°07' E 003°22'3 7.0
2017-May-24 11:00N 52°11' E 003°23'3 6.3
2017-May-24 10:30N 52°14' E 003°23'3 6.8
2017-May-24 10:00N 52°17' E 003°24'4 7.1
2017-May-24 09:30N 52°21' E 003°25'4 7.3
2017-May-24 08:59N 52°24' E 003°26'4 7.6
2017-May-24 08:30N 52°28' E 003°28'4 7.8
2017-May-24 08:00N 52°32' E 003°29'4 8.4
2017-May-24 07:30N 52°36' E 003°30'5 9.2
2017-May-24 07:00N 52°40' E 003°34'5 9.1
2017-May-24 06:27N 52°43' E 003°40'4 8.9
2017-May-24 06:00N 52°47' E 003°44'6 9.0
2017-May-24 05:22N 52°51' E 003°50'3 9.4
2017-May-24 05:00N 52°54' E 003°54'5 9.2
2017-May-24 04:30N 52°57' E 003°59'5 9.2
2017-May-24 03:59N 53°00' E 004°05'5 9.4
2017-May-24 03:24N 53°04' E 004°12'4 9.3
2017-May-24 02:59N 53°06' E 004°16'6 9.2
2017-May-24 02:21N 53°10' E 004°23'7 8.5
2017-May-24 01:34N 53°16' E 004°28'0 8.1
2017-May-24 01:30N 53°17' E 004°28'7 8.7
2017-May-24 00:45N 53°23' E 004°32'2 9.2
2017-May-24 00:30N 53°25' E 004°33'5 9.2
2017-May-24 00:00N 53°29' E 004°38'510.1
2017-May-23 23:30N 53°30' E 004°46'710.3
2017-May-23 22:48N 53°33' E 004°58'410.3
2017-May-23 22:22N 53°34' E 005°05'113 9.5
2017-May-23 10:31N 54°01' E 008°10'2 9.8
2017-May-23 10:18N 54°00' E 008°14'516.3
2017-May-23 09:58N 53°59' E 008°23'817.4
2017-May-23 09:30N 53°58' E 008°36'713.8
2017-May-23 09:00N 53°52' E 008°43'4 8.2
2017-May-23 08:30N 53°50' E 008°50'612.1
2017-May-23 08:00N 53°51' E 008°60'611.6
2017-May-23 07:30N 53°53' E 009°09'5 9.5
2017-May-23 07:01N 53°52' E 009°17'714.8
2017-May-23 06:31N 53°46' E 009°24'714.9
2017-May-23 06:00N 53°40' E 009°31'713.4
2017-May-23 05:31N 53°35' E 009°38'612.7
2017-May-23 05:01N 53°33' E 009°49'3 6.8
2017-May-23 04:30N 53°32' E 009°55'0 0.0
2017-May-23 03:58N 53°32' E 009°55'0 0.0
2017-May-23 03:28N 53°32' E 009°55'0 0.0
2017-May-23 02:58N 53°32' E 009°55'0 0.0
2017-May-23 02:28N 53°32' E 009°55'0 0.0
2017-May-23 01:58N 53°32' E 009°55'0 0.0
2017-May-23 01:28N 53°32' E 009°55'0 0.0
2017-May-23 00:58N 53°32' E 009°55'0 0.0
2017-May-23 00:28N 53°32' E 009°55'0 0.0
2017-May-22 23:58N 53°32' E 009°55'0 0.0
2017-May-22 23:28N 53°32' E 009°55'0 0.0
2017-May-22 22:58N 53°32' E 009°55'0 0.0
2017-May-22 22:28N 53°32' E 009°55'0 0.0
2017-May-22 21:58N 53°32' E 009°55'0 0.0
2017-May-22 21:28N 53°32' E 009°55'0 0.0
2017-May-22 20:58N 53°32' E 009°55'0 0.0
2017-May-22 20:28N 53°32' E 009°55'0 0.0
2017-May-22 19:55N 53°32' E 009°55'0 0.0
2017-May-22 19:28N 53°32' E 009°55'0 0.0
2017-May-22 18:58N 53°32' E 009°55'0 0.0
2017-May-22 18:28N 53°32' E 009°55'0 0.0
2017-May-22 17:58N 53°32' E 009°55'0 0.0
2017-May-22 17:28N 53°32' E 009°55'0 0.0
2017-May-22 16:58N 53°32' E 009°55'0 0.0
2017-May-22 16:28N 53°32' E 009°55'0 0.0
2017-May-22 15:58N 53°32' E 009°55'0 0.0
2017-May-22 15:28N 53°32' E 009°55'0 0.0
2017-May-22 14:58N 53°32' E 009°55'0 0.0
2017-May-22 13:58N 53°32' E 009°55'0 0.0
2017-May-22 13:28N 53°32' E 009°55'0 0.0
2017-May-22 12:58N 53°32' E 009°55'0 0.0
2017-May-22 12:28N 53°32' E 009°55'0 0.0
2017-May-22 11:58N 53°32' E 009°55'0 0.0
2017-May-22 11:28N 53°32' E 009°55'0 0.0
2017-May-22 10:58N 53°32' E 009°55'0 0.0
2017-May-22 10:28N 53°32' E 009°55'0 0.0
2017-May-22 09:58N 53°32' E 009°55'0 0.0
2017-May-22 09:28N 53°32' E 009°55'0 0.0
2017-May-22 08:58N 53°32' E 009°55'0 0.0
2017-May-22 08:28N 53°32' E 009°55'0 0.0
2017-May-22 07:58N 53°32' E 009°55'0 0.0
2017-May-22 07:28N 53°32' E 009°55'0 0.0
2017-May-22 06:58N 53°32' E 009°55'0 0.0
2017-May-22 06:28N 53°32' E 009°55'0 0.0
2017-May-22 05:58N 53°32' E 009°55'0 0.0
2017-May-22 05:28N 53°32' E 009°55'0 0.0
2017-May-22 04:58N 53°32' E 009°55'0 0.0
2017-May-22 04:28N 53°32' E 009°55'0 0.0
2017-May-22 03:58N 53°32' E 009°55'0 0.2
2017-May-22 03:30N 53°32' E 009°54'2 4.0
2017-May-22 03:00N 53°33' E 009°51'4 7.5
2017-May-22 02:30N 53°34' E 009°45'612.3
2017-May-22 02:01N 53°36' E 009°35'611.0
2017-May-22 01:31N 53°41' E 009°30'713.9
2017-May-22 01:00N 53°46' E 009°24'714.4
2017-May-22 00:30N 53°52' E 009°16'611.4
2017-May-22 00:01N 53°53' E 009°07'510.0
2017-May-21 23:30N 53°51' E 008°59'612.9
2017-May-21 23:01N 53°50' E 008°48'5 9.6
2017-May-21 22:30N 53°53' E 008°42'612.1
2017-May-21 22:01N 53°58' E 008°35'816.0
2017-May-21 21:30N 53°59' E 008°21'612.4
2017-May-21 21:00N 53°60' E 008°11'5 9.3
2017-May-21 20:30N 53°59' E 008°03'5 9.3
2017-May-21 19:59N 53°60' E 007°55'3 6.5
2017-May-21 19:30N 54°00' E 007°49'0 0.4
2017-May-21 19:00N 54°00' E 007°49'1 1.3
2017-May-21 18:25N 53°60' E 007°48'3 5.4
2017-May-21 17:55N 53°58' E 007°45'4 6.7
2017-May-21 17:21N 53°56' E 007°39'76 7.9
2017-May-21 07:49N 53°36' E 005°36'7 6.4
2017-May-21 06:40N 53°33' E 005°24'4 9.5
2017-May-21 06:17N 53°32' E 005°18'3 9.6
2017-May-21 06:00N 53°31' E 005°14'6 9.8
2017-May-21 05:26N 53°29' E 005°05'510.0
2017-May-21 04:58N 53°28' E 004°58'610.2
2017-May-21 04:25N 53°26' E 004°49'11 9.5
2017-May-21 03:19N 53°18' E 004°37'310.4
2017-May-21 02:59N 53°15' E 004°35'510.5
2017-May-21 02:30N 53°10' E 004°32'510.9
2017-May-21 02:00N 53°05' E 004°27'510.9
2017-May-21 01:30N 53°01' E 004°22'510.8
2017-May-21 01:00N 52°56' E 004°18'611.1
2017-May-21 00:30N 52°51' E 004°15'611.6
2017-May-21 00:00N 52°46' E 004°09'611.2
2017-May-20 23:30N 52°42' E 004°03'611.1
2017-May-20 23:00N 52°38' E 003°56'510.9
2017-May-20 22:30N 52°34' E 003°50'510.9
2017-May-20 22:00N 52°30' E 003°43'511.0
2017-May-20 21:30N 52°26' E 003°37'611.1
2017-May-20 21:00N 52°23' E 003°31'811.1
2017-May-20 20:16N 52°16' E 003°21'311.0
2017-May-20 20:00N 52°14' E 003°18'1010.7
2017-May-20 19:07N 52°08' E 003°07'210.6
2017-May-20 18:56N 52°07' E 003°04'1911.3
2017-May-20 17:17N 51°57' E 002°39'16 9.8
2017-May-20 15:41N 51°53' E 002°14'2 9.0
2017-May-20 15:29N 51°53' E 002°11'4 9.1
2017-May-20 15:00N 51°52' E 002°04'5 9.0
2017-May-20 14:30N 51°50' E 001°58'1010.5
2017-May-20 13:31N 51°51' E 001°41'611.3
2017-May-20 13:00N 51°47' E 001°34'917.3
2017-May-20 12:30N 51°40' E 001°25'918.5
2017-May-20 12:00N 51°34' E 001°14'1019.0
2017-May-20 11:30N 51°30' E 001°01'917.6
2017-May-20 11:00N 51°29' E 000°47'917.4
2017-May-20 10:31N 51°30' E 000°33'2 3.7
2017-May-20 10:01N 51°30' E 000°30'0 0.0
2017-May-20 09:31N 51°30' E 000°30'0 0.0
2017-May-20 09:01N 51°30' E 000°30'0 0.0
2017-May-20 08:31N 51°30' E 000°30'0 0.0
2017-May-20 08:01N 51°30' E 000°30'0 0.0
2017-May-20 07:31N 51°30' E 000°30'0 0.0
2017-May-20 07:01N 51°30' E 000°30'0 0.0
2017-May-20 06:31N 51°30' E 000°30'0 0.0
2017-May-20 06:01N 51°30' E 000°30'0 0.0
2017-May-20 05:31N 51°30' E 000°30'0 0.0
2017-May-20 05:01N 51°30' E 000°30'0 0.0
2017-May-20 04:31N 51°30' E 000°30'0 0.0
2017-May-20 04:01N 51°30' E 000°30'0 0.0
2017-May-20 03:31N 51°30' E 000°30'0 0.0
2017-May-20 03:01N 51°30' E 000°30'0 0.0
2017-May-20 02:31N 51°30' E 000°30'0 0.0
2017-May-20 02:01N 51°30' E 000°30'0 0.0
2017-May-20 01:30N 51°30' E 000°30'0 0.0
2017-May-20 01:00N 51°30' E 000°30'0 0.0
2017-May-20 00:30N 51°30' E 000°30'1 2.3
2017-May-20 00:00N 51°30' E 000°32'4 8.4
2017-May-19 23:30N 51°30' E 000°38'5 9.9
2017-May-19 23:00N 51°29' E 000°46'510.9
2017-May-19 22:30N 51°29' E 000°55'510.5
2017-May-19 22:00N 51°31' E 001°03'611.2
2017-May-19 21:31N 51°34' E 001°11'714.0
2017-May-19 21:01N 51°37' E 001°20'714.1
2017-May-19 20:31N 51°42' E 001°28'714.0
2017-May-19 20:01N 51°48' E 001°35'510.4
2017-May-19 19:30N 51°52' E 001°41'3 6.6
2017-May-19 19:00N 51°51' E 001°46'5 9.6
2017-May-19 18:30N 51°50' E 001°54'510.0
2017-May-19 18:00N 51°52' E 002°01'36 5.6
2017-May-19 11:33N 52°01' E 002°57'1 7.2
2017-May-19 11:29N 52°01' E 002°58'3 7.1
2017-May-19 11:00N 52°02' E 003°04'3 6.9
2017-May-19 10:30N 52°02' E 003°09'3 6.6
2017-May-19 10:00N 52°02' E 003°15'4 6.8
2017-May-19 09:29N 52°02' E 003°21'5 9.4
2017-May-19 09:00N 52°03' E 003°28'3 6.4
2017-May-19 08:30N 52°03' E 003°33'4 7.5
2017-May-19 08:00N 52°03' E 003°39'612.0
2017-May-19 07:30N 52°04' E 003°49'4 9.0
2017-May-19 07:01N 52°04' E 003°56'4 7.4
2017-May-19 06:31N 52°01' E 003°59'612.0
2017-May-19 06:00N 51°58' E 004°08'612.1
2017-May-19 05:30N 51°55' E 004°15'5 9.0
2017-May-19 05:00N 51°54' E 004°23'2 4.5
2017-May-19 04:30N 51°54' E 004°26'0 0.2
2017-May-19 03:58N 51°54' E 004°26'0 0.0
2017-May-19 03:28N 51°54' E 004°26'0 0.0
2017-May-19 02:58N 51°54' E 004°26'0 0.0
2017-May-19 02:29N 51°54' E 004°26'0 0.0
2017-May-19 01:58N 51°54' E 004°26'0 0.0
2017-May-19 01:29N 51°54' E 004°26'0 0.0
2017-May-19 00:58N 51°54' E 004°26'0 0.0
2017-May-19 00:29N 51°54' E 004°26'0 0.0
2017-May-18 23:59N 51°54' E 004°26'0 0.0
2017-May-18 23:29N 51°54' E 004°26'0 0.0
2017-May-18 22:58N 51°54' E 004°26'0 0.0
2017-May-18 22:29N 51°54' E 004°26'0 0.0
2017-May-18 21:59N 51°54' E 004°26'0 0.0
2017-May-18 21:29N 51°54' E 004°26'0 0.0
2017-May-18 20:59N 51°54' E 004°26'0 0.0
2017-May-18 20:29N 51°54' E 004°26'0 0.0
2017-May-18 19:59N 51°54' E 004°26'0 0.0
2017-May-18 19:29N 51°54' E 004°26'0 0.0
2017-May-18 18:59N 51°54' E 004°26'0 0.0
2017-May-18 18:29N 51°54' E 004°26'0 0.0
2017-May-18 17:59N 51°54' E 004°26'0 0.0
2017-May-18 17:28N 51°54' E 004°26'0 0.0
2017-May-18 16:58N 51°54' E 004°26'0 0.0
2017-May-18 16:29N 51°54' E 004°26'0 0.0
2017-May-18 15:59N 51°54' E 004°26'0 0.0
2017-May-18 15:29N 51°54' E 004°26'0 0.0
2017-May-18 14:58N 51°54' E 004°26'0 0.0
2017-May-18 13:59N 51°54' E 004°26'0 0.0
2017-May-18 13:29N 51°54' E 004°26'0 0.0
2017-May-18 12:58N 51°54' E 004°26'0 0.0
2017-May-18 12:28N 51°54' E 004°26'0 0.0
2017-May-18 11:58N 51°54' E 004°26'0 0.0
2017-May-18 11:29N 51°54' E 004°26'0 0.1
2017-May-18 10:59N 51°54' E 004°26'0 0.0
2017-May-18 10:29N 51°54' E 004°26'0 0.0
2017-May-18 09:59N 51°54' E 004°26'0 0.0
2017-May-18 09:29N 51°54' E 004°26'0 0.0
2017-May-18 08:59N 51°54' E 004°26'0 0.0
2017-May-18 08:29N 51°54' E 004°26'0 0.0
2017-May-18 07:59N 51°54' E 004°26'0 0.0
2017-May-18 07:28N 51°54' E 004°26'0 0.0
2017-May-18 06:58N 51°54' E 004°26'0 0.0
2017-May-18 06:28N 51°54' E 004°26'0 0.0
2017-May-18 05:58N 51°54' E 004°26'0 0.0
2017-May-18 05:28N 51°54' E 004°26'0 0.0
2017-May-18 04:58N 51°54' E 004°26'0 0.5
2017-May-18 04:30N 51°54' E 004°26'2 4.1
2017-May-18 04:00N 51°54' E 004°23'4 7.2
2017-May-18 03:31N 51°54' E 004°17'4 8.0
2017-May-18 03:01N 51°56' E 004°12'510.5
2017-May-18 02:31N 51°59' E 004°05'714.3
2017-May-18 02:00N 51°60' E 003°53'611.3
2017-May-18 01:30N 51°59' E 003°44'5 9.1
2017-May-18 01:00N 51°57' E 003°37'4 9.1
2017-May-18 00:30N 51°56' E 003°30'5 9.9
2017-May-18 00:00N 51°55' E 003°22'40 9.7
2017-May-17 19:54N 51°37' E 002°25'810.4
2017-May-17 19:10N 51°31' E 002°17'414.1
2017-May-17 18:54N 51°28' E 002°12'514.2
2017-May-17 18:30N 51°24' E 002°07'714.1
2017-May-17 18:00N 51°19' E 001°58'714.3
2017-May-17 17:30N 51°14' E 001°51'714.6
2017-May-17 17:00N 51°08' E 001°43'815.5
2017-May-17 16:30N 51°02' E 001°35'816.2
2017-May-17 16:00N 50°56' E 001°27'714.7
2017-May-17 15:30N 50°49' E 001°23'815.5
2017-May-17 15:00N 50°41' E 001°20'3614.9
2017-May-17 12:33N 50°23' E 000°31'215.9
2017-May-17 12:26N 50°23' E 000°28'715.9
2017-May-17 12:00N 50°21' E 000°18'816.0
2017-May-17 11:30N 50°19' E 000°06'815.8
2017-May-17 11:00N 50°17' W 000°06'815.7
2017-May-17 10:30N 50°15' W 000°18'815.4
2017-May-17 10:00N 50°13' W 000°30'815.1
2017-May-17 09:30N 50°11' W 000°42'714.8
2017-May-17 09:00N 50°10' W 000°53'714.3
2017-May-17 08:30N 50°08' W 001°04'713.8
2017-May-17 07:58N 50°06' W 001°15'  

Dump ship's entire track history